createdAt,value
2023-09-06T00:00:52.221Z,32.85
2023-09-06T00:03:18.931Z,32.46
2023-09-06T00:05:45.721Z,32.30
2023-09-06T00:08:16.113Z,31.87
2023-09-06T00:10:43.193Z,31.79
2023-09-06T00:13:10.197Z,34.54
2023-09-06T00:15:36.780Z,34.08
2023-09-06T00:18:04.542Z,32.90
2023-09-06T00:20:31.679Z,32.45
2023-09-06T00:22:59.024Z,32.16
2023-09-06T00:25:26.085Z,31.81
2023-09-06T00:27:52.804Z,31.38
2023-09-06T00:30:22.360Z,32.35
2023-09-06T00:33:26.755Z,33.85
2023-09-06T00:35:53.445Z,32.79
2023-09-06T00:38:21.647Z,32.09
2023-09-06T00:40:51.309Z,32.13
2023-09-06T00:43:17.866Z,31.53
2023-09-06T00:45:49.224Z,31.57
2023-09-06T00:48:18.163Z,31.17
2023-09-06T00:50:44.699Z,32.15
2023-09-06T00:53:11.302Z,33.96
2023-09-06T00:55:47.423Z,33.06
2023-09-06T00:58:16.920Z,32.03
2023-09-06T01:00:44.341Z,31.94
2023-09-06T01:03:11.123Z,31.76
2023-09-06T01:05:41.932Z,31.27
2023-09-06T01:08:08.565Z,30.97
2023-09-06T01:10:35.350Z,31.79
2023-09-06T01:13:02.170Z,34.11
2023-09-06T01:15:29.351Z,33.08
2023-09-06T01:17:56.064Z,31.85
2023-09-06T01:20:26.185Z,31.80
2023-09-06T01:22:54.168Z,31.45
2023-09-06T01:25:20.877Z,31.15
2023-09-06T01:27:48.195Z,30.80
2023-09-06T01:30:15.474Z,34.09
2023-09-06T01:32:42.366Z,33.38
2023-09-06T01:35:11.343Z,31.99
2023-09-06T01:37:38.631Z,31.59
2023-09-06T01:40:22.802Z,31.70
2023-09-06T01:42:49.380Z,31.34
2023-09-06T01:45:18.759Z,30.68
2023-09-06T01:47:46.289Z,32.03
2023-09-06T01:50:12.896Z,33.72
2023-09-06T01:52:41.286Z,32.90
2023-09-06T01:55:11.086Z,31.89
2023-09-06T01:57:37.756Z,31.51
2023-09-06T02:00:24.923Z,31.36
2023-09-06T02:02:51.873Z,31.18
2023-09-06T02:05:18.557Z,30.85
2023-09-06T02:07:45.600Z,33.22
2023-09-06T02:10:12.285Z,33.36
2023-09-06T02:12:39.280Z,31.85
2023-09-06T02:15:09.290Z,31.43
2023-09-06T02:17:36.170Z,31.33
2023-09-06T02:20:13.910Z,30.79
2023-09-06T02:22:43.982Z,30.71
2023-09-06T02:25:10.639Z,33.80
2023-09-06T02:27:41.747Z,33.58
2023-09-06T02:30:08.720Z,32.07
2023-09-06T02:32:35.603Z,31.71
2023-09-06T02:35:02.316Z,31.24
2023-09-06T02:37:28.858Z,31.21
2023-09-06T02:39:55.422Z,30.80
2023-09-06T02:42:22.189Z,30.36
2023-09-06T02:44:48.783Z,31.69
2023-09-06T02:47:18.551Z,33.04
2023-09-06T02:49:46.018Z,32.83
2023-09-06T02:52:22.276Z,31.85
2023-09-06T02:54:49.106Z,32.80
2023-09-06T02:57:18.181Z,34.42
2023-09-06T02:59:44.762Z,35.50
2023-09-06T03:02:14.026Z,37.92
2023-09-06T03:04:42.317Z,38.93
2023-09-06T03:07:09.891Z,39.69
2023-09-06T03:09:37.044Z,39.66
2023-09-06T03:12:24.117Z,39.56
2023-09-06T03:14:51.196Z,39.59
2023-09-06T03:17:23.866Z,40.27
2023-09-06T03:19:55.116Z,40.45
2023-09-06T03:22:24.628Z,40.57
2023-09-06T03:24:56.461Z,40.43
2023-09-06T03:27:23.075Z,40.60
2023-09-06T03:29:52.177Z,40.56
2023-09-06T03:32:19.264Z,40.52
2023-09-06T03:34:46.733Z,40.85
2023-09-06T03:37:13.897Z,40.89
2023-09-06T03:39:44.146Z,40.38
2023-09-06T03:42:10.873Z,40.01
2023-09-06T03:44:37.692Z,39.42
2023-09-06T03:47:14.817Z,39.45
2023-09-06T03:49:41.827Z,39.30
2023-09-06T03:52:08.548Z,39.36
2023-09-06T03:54:35.598Z,39.27
2023-09-06T03:57:05.584Z,39.46
2023-09-06T03:59:36.724Z,39.04
2023-09-06T04:02:04.039Z,39.24
2023-09-06T04:04:30.922Z,39.56
2023-09-06T04:06:57.506Z,39.24
2023-09-06T04:09:29.363Z,39.13
2023-09-06T04:11:59.117Z,39.36
2023-09-06T04:14:26.023Z,39.26
2023-09-06T04:16:52.758Z,39.22
2023-09-06T04:19:19.376Z,39.50
2023-09-06T04:21:49.146Z,39.36
2023-09-06T04:24:15.826Z,37.13
2023-09-06T04:26:42.322Z,38.75
2023-09-06T04:29:08.956Z,35.50
2023-09-06T04:31:35.550Z,34.25
2023-09-06T04:34:02.709Z,33.59
2023-09-06T04:36:29.623Z,32.84
2023-09-06T04:38:57.608Z,32.47
2023-09-06T04:41:24.327Z,32.37
2023-09-06T04:43:50.889Z,32.18
2023-09-06T04:46:17.490Z,32.12
2023-09-06T04:48:44.511Z,31.46
2023-09-06T04:51:11.083Z,35.04
2023-09-06T04:53:37.748Z,34.34
2023-09-06T04:56:04.792Z,33.17
2023-09-06T04:58:31.421Z,32.61
2023-09-06T05:00:58.046Z,32.03
2023-09-06T05:03:24.896Z,31.83
2023-09-06T05:05:52.406Z,31.83
2023-09-06T05:08:19.196Z,31.42
2023-09-06T05:10:45.841Z,31.56
2023-09-06T05:13:13.202Z,33.80
2023-09-06T05:15:39.862Z,33.71
2023-09-06T05:18:06.741Z,32.54
2023-09-06T05:20:38.848Z,32.25
2023-09-06T05:23:06.268Z,31.87
2023-09-06T05:25:32.897Z,31.60
2023-09-06T05:28:00.366Z,31.06
2023-09-06T05:30:27.089Z,34.46
2023-09-06T05:32:56.969Z,33.78
2023-09-06T05:35:23.953Z,32.49
2023-09-06T05:37:50.529Z,31.41
2023-09-06T05:40:23.680Z,31.23
2023-09-06T05:42:52.808Z,31.58
2023-09-06T05:45:20.062Z,31.34
2023-09-06T05:47:46.847Z,30.91
2023-09-06T05:50:13.476Z,33.44
2023-09-06T05:52:39.988Z,33.87
2023-09-06T05:55:08.029Z,33.07
2023-09-06T05:57:34.678Z,31.85
2023-09-06T06:00:01.798Z,31.49
2023-09-06T06:02:31.132Z,31.02
2023-09-06T06:04:57.879Z,31.96
2023-09-06T06:07:24.545Z,31.22
2023-09-06T06:09:51.185Z,33.56
2023-09-06T06:12:23.835Z,33.70
2023-09-06T06:14:53.738Z,32.21
2023-09-06T06:17:20.605Z,31.23
2023-09-06T06:19:47.312Z,30.98
2023-09-06T06:22:13.912Z,30.86
2023-09-06T06:24:42.208Z,30.54
2023-09-06T06:27:08.968Z,33.97
2023-09-06T06:29:35.793Z,34.08
2023-09-06T06:32:02.822Z,32.20
2023-09-06T06:35:17.946Z,31.52
2023-09-06T06:37:45.797Z,30.99
2023-09-06T06:40:13.089Z,30.97
2023-09-06T06:42:40.708Z,30.18
2023-09-06T06:45:07.740Z,33.54
2023-09-06T06:47:34.762Z,33.57
2023-09-06T06:50:04.634Z,32.38
2023-09-06T06:52:37.831Z,31.54
2023-09-06T06:55:07.267Z,31.10
2023-09-06T06:57:34.866Z,31.13
2023-09-06T07:00:02.711Z,30.56
2023-09-06T07:02:29.876Z,30.46
2023-09-06T07:04:59.306Z,32.75
2023-09-06T07:07:26.288Z,32.85
2023-09-06T07:09:53.002Z,31.40
2023-09-06T07:12:19.620Z,31.05
2023-09-06T07:14:46.236Z,31.13
2023-09-06T07:17:12.888Z,30.78
2023-09-06T07:19:39.534Z,30.38
2023-09-06T07:22:06.085Z,33.74
2023-09-06T07:24:32.678Z,33.65
2023-09-06T07:26:59.270Z,32.21
2023-09-06T07:29:25.901Z,31.08
2023-09-06T07:31:52.504Z,30.82
2023-09-06T07:34:19.219Z,30.51
2023-09-06T07:36:45.800Z,30.12
2023-09-06T07:39:12.508Z,30.78
2023-09-06T07:41:42.024Z,33.17
2023-09-06T07:44:09.097Z,32.64
2023-09-06T07:46:35.771Z,31.33
2023-09-06T07:49:02.590Z,31.13
2023-09-06T07:51:29.293Z,30.94
2023-09-06T07:53:56.965Z,30.63
2023-09-06T07:56:23.650Z,30.39
2023-09-06T07:58:50.401Z,33.70
2023-09-06T08:01:19.484Z,33.52
2023-09-06T08:03:47.945Z,32.35
2023-09-06T08:06:16.041Z,31.15
2023-09-06T08:08:43.062Z,30.86
2023-09-06T08:11:09.721Z,30.59
2023-09-06T08:13:38.617Z,30.65
2023-09-06T08:16:06.925Z,30.26
2023-09-06T08:18:34.273Z,33.70
2023-09-06T08:21:01.834Z,33.46
2023-09-06T08:23:28.472Z,32.52
2023-09-06T08:25:57.525Z,31.40
2023-09-06T08:28:24.040Z,30.73
2023-09-06T08:30:51.357Z,30.69
2023-09-06T08:33:18.431Z,30.30
2023-09-06T08:35:45.051Z,30.78
2023-09-06T08:38:14.101Z,33.22
2023-09-06T08:40:41.096Z,32.81
2023-09-06T08:43:07.749Z,31.40
2023-09-06T08:45:34.363Z,31.08
2023-09-06T08:48:01.104Z,30.42
2023-09-06T08:50:27.620Z,30.25
2023-09-06T08:52:55.399Z,30.08
2023-09-06T08:55:22.000Z,33.26
2023-09-06T08:57:48.594Z,33.08
2023-09-06T09:00:15.425Z,32.14
2023-09-06T09:02:43.782Z,31.35
2023-09-06T09:05:20.679Z,31.05
2023-09-06T09:07:58.012Z,30.55
2023-09-06T09:10:27.689Z,30.89
2023-09-06T09:12:55.400Z,31.80
2023-09-06T09:15:28.282Z,33.16
2023-09-06T09:20:25.838Z,31.48
2023-09-06T09:22:53.137Z,31.08
2023-09-06T09:25:24.679Z,31.20
2023-09-06T09:27:57.950Z,30.79
2023-09-06T09:30:25.420Z,30.30
2023-09-06T09:32:59.296Z,31.02
2023-09-06T09:35:26.699Z,32.94
2023-09-06T09:37:53.646Z,32.30
2023-09-06T09:40:21.753Z,31.39
2023-09-06T09:42:57.514Z,31.09
2023-09-06T09:45:26.057Z,30.79
2023-09-06T09:47:54.462Z,30.59
2023-09-06T09:50:25.938Z,30.34
2023-09-06T09:52:52.591Z,32.87
2023-09-06T09:55:19.932Z,33.26
2023-09-06T09:57:55.907Z,31.52
2023-09-06T10:00:29.371Z,31.02
2023-09-06T10:03:03.914Z,31.06
2023-09-06T10:05:33.073Z,30.70
2023-09-06T10:07:59.691Z,30.51
2023-09-06T10:10:29.457Z,30.12
2023-09-06T10:13:02.066Z,32.49
2023-09-06T10:15:30.120Z,32.55
2023-09-06T10:17:57.000Z,31.74
2023-09-06T10:23:18.434Z,30.97
2023-09-06T10:25:59.379Z,30.57
2023-09-06T10:28:26.464Z,30.40
2023-09-06T10:31:03.203Z,33.21
2023-09-06T10:33:37.637Z,33.18
2023-09-06T10:36:13.142Z,31.92
2023-09-06T10:38:52.264Z,35.99
2023-09-06T10:41:20.135Z,35.83
2023-09-06T10:43:54.600Z,32.48
2023-09-06T10:46:23.662Z,32.07
2023-09-06T10:49:09.237Z,32.71
2023-09-06T10:51:35.731Z,33.41
2023-09-06T10:54:03.525Z,34.62
2023-09-06T10:56:30.290Z,36.02
2023-09-06T10:58:57.315Z,37.17
2023-09-06T11:01:24.034Z,37.84
2023-09-06T11:03:53.841Z,38.11
2023-09-06T11:06:20.519Z,38.90
2023-09-06T11:08:47.260Z,39.46
2023-09-06T11:11:15.522Z,39.50
2023-09-06T11:13:43.326Z,39.78
2023-09-06T11:16:14.199Z,39.96
2023-09-06T11:18:47.787Z,39.88
2023-09-06T11:21:19.143Z,40.05
2023-09-06T11:23:46.406Z,39.87
2023-09-06T11:26:13.895Z,40.19
2023-09-06T11:28:42.529Z,40.13
2023-09-06T11:31:26.664Z,39.69
2023-09-06T11:33:58.785Z,39.49
2023-09-06T11:36:29.010Z,39.41
2023-09-06T11:38:55.552Z,39.16
2023-09-06T11:41:22.268Z,39.29
2023-09-06T11:43:50.852Z,39.25
2023-09-06T11:46:18.994Z,39.35
2023-09-06T11:48:45.787Z,39.16
2023-09-06T11:51:14.716Z,39.69
2023-09-06T11:53:49.712Z,39.72
2023-09-06T11:56:21.681Z,39.34
2023-09-06T11:59:14.441Z,39.11
2023-09-06T12:01:42.318Z,39.33
2023-09-06T12:04:11.792Z,39.52
2023-09-06T12:06:42.762Z,39.70
2023-09-06T12:09:16.977Z,39.60
2023-09-06T12:11:43.583Z,39.60
2023-09-06T12:14:11.565Z,38.08
2023-09-06T12:16:38.474Z,38.84
2023-09-06T12:19:05.151Z,36.02
2023-09-06T12:21:31.845Z,34.74
2023-09-06T12:23:59.343Z,33.65
2023-09-06T12:26:26.109Z,33.10
2023-09-06T12:28:52.857Z,33.01
2023-09-06T12:31:19.454Z,32.64
2023-09-06T12:33:51.162Z,32.25
2023-09-06T12:36:18.914Z,32.24
2023-09-06T12:38:45.790Z,35.06
2023-09-06T12:41:13.067Z,35.48
2023-09-06T12:43:39.699Z,33.35
2023-09-06T12:46:08.081Z,32.76
2023-09-06T12:48:36.232Z,32.43
2023-09-06T12:51:04.459Z,31.87
2023-09-06T12:53:31.488Z,31.55
2023-09-06T12:55:58.068Z,33.41
2023-09-06T12:58:24.748Z,33.98
2023-09-06T13:00:51.346Z,33.36
2023-09-06T13:03:18.574Z,32.42
2023-09-06T13:05:47.517Z,31.80
2023-09-06T13:08:14.234Z,31.51
2023-09-06T13:10:40.880Z,31.10
2023-09-06T13:13:07.527Z,30.97
2023-09-06T13:15:34.158Z,34.23
2023-09-06T13:18:03.328Z,37.03
2023-09-06T13:20:31.274Z,33.41
2023-09-06T13:22:58.522Z,32.17
2023-09-06T13:25:25.332Z,31.81
2023-09-06T13:27:51.954Z,31.46
2023-09-06T13:30:18.617Z,31.27
2023-09-06T13:32:45.397Z,31.78
2023-09-06T13:35:12.837Z,34.11
2023-09-06T13:37:39.715Z,32.81
2023-09-06T13:40:09.070Z,31.88
2023-09-06T13:42:35.771Z,31.78
2023-09-06T13:45:02.498Z,31.52
2023-09-06T13:47:29.181Z,30.88
2023-09-06T13:49:55.796Z,30.54
2023-09-06T13:52:22.426Z,33.68
2023-09-06T13:54:49.217Z,33.54
2023-09-06T13:57:15.801Z,32.30
2023-09-06T13:59:42.802Z,31.64
2023-09-06T14:02:09.699Z,31.42
2023-09-06T14:04:36.733Z,30.95
2023-09-06T14:07:03.547Z,30.94
2023-09-06T14:09:30.167Z,31.84
2023-09-06T14:11:57.006Z,34.00
2023-09-06T14:14:25.119Z,33.33
2023-09-06T14:16:52.139Z,32.08
2023-09-06T14:19:18.951Z,31.40
2023-09-06T14:21:48.483Z,31.27
2023-09-06T14:24:15.573Z,30.67
2023-09-06T14:26:44.773Z,32.20
2023-09-06T14:29:14.643Z,34.22
2023-09-06T14:31:41.634Z,33.49
2023-09-06T14:34:08.373Z,31.83
2023-09-06T14:36:35.092Z,31.61
2023-09-06T14:39:02.613Z,31.48
2023-09-06T14:41:29.388Z,30.67
2023-09-06T14:43:56.793Z,30.62
2023-09-06T14:46:23.765Z,33.16
2023-09-06T14:48:50.525Z,33.32
2023-09-06T14:51:17.292Z,31.78
2023-09-06T14:53:44.352Z,31.51
2023-09-06T14:56:11.378Z,31.16
2023-09-06T14:58:38.033Z,30.69
2023-09-06T15:01:06.373Z,30.56
2023-09-06T15:03:36.349Z,32.72
2023-09-06T15:06:47.914Z,41.73
2023-09-06T15:09:27.012Z,43.28
2023-09-06T15:11:56.798Z,44.29
2023-09-06T15:14:30.044Z,44.07
2023-09-06T15:16:59.413Z,39.42
2023-09-06T15:19:34.318Z,37.20
2023-09-06T15:22:08.125Z,37.01
2023-09-06T15:24:34.830Z,39.09
2023-09-06T15:27:01.452Z,40.39
2023-09-06T15:29:54.156Z,40.63
2023-09-06T15:32:22.841Z,40.77
2023-09-06T15:34:50.626Z,40.81
2023-09-06T15:37:17.373Z,40.09
2023-09-06T15:39:46.694Z,40.24
2023-09-06T15:42:13.465Z,39.93
2023-09-06T15:44:43.326Z,40.60
2023-09-06T15:47:14.513Z,41.12
2023-09-06T15:49:41.047Z,41.01
2023-09-06T15:52:08.401Z,40.91
2023-09-06T15:54:35.058Z,40.94
2023-09-06T15:57:14.950Z,41.27
2023-09-06T15:59:41.550Z,42.44
2023-09-06T16:02:08.249Z,41.57
2023-09-06T16:04:35.022Z,41.45
2023-09-06T16:07:01.721Z,41.60
2023-09-06T16:09:28.264Z,41.38
2023-09-06T16:11:58.031Z,42.23
2023-09-06T16:14:26.062Z,42.78
2023-09-06T16:16:52.908Z,43.85
2023-09-06T16:19:22.242Z,42.16
2023-09-06T16:21:49.373Z,42.79
2023-09-06T16:24:16.074Z,42.54
2023-09-06T16:26:45.320Z,42.36
2023-09-06T16:29:12.840Z,42.11
2023-09-06T16:31:39.444Z,41.92
2023-09-06T16:34:06.115Z,42.35
2023-09-06T16:36:33.299Z,42.62
2023-09-06T16:38:59.986Z,42.24
2023-09-06T16:41:26.943Z,43.20
2023-09-06T16:43:53.754Z,43.66
2023-09-06T16:46:20.875Z,43.44
2023-09-06T16:48:57.121Z,42.99
2023-09-06T16:51:26.543Z,42.44
2023-09-06T16:53:53.312Z,42.35
2023-09-06T16:56:31.913Z,42.19
2023-09-06T16:58:58.555Z,43.28
2023-09-06T17:01:31.302Z,43.32
2023-09-06T17:03:58.064Z,43.36
2023-09-06T17:06:30.981Z,43.86
2023-09-06T17:08:58.247Z,43.70
2023-09-06T17:11:24.898Z,43.86
2023-09-06T17:13:54.553Z,43.89
2023-09-06T17:16:29.931Z,43.73
2023-09-06T17:19:01.905Z,44.17
2023-09-06T17:21:28.514Z,44.17
2023-09-06T17:24:03.480Z,45.01
2023-09-06T17:26:58.426Z,45.86
2023-09-06T17:29:29.772Z,46.06
2023-09-06T17:31:56.499Z,45.65
2023-09-06T17:34:23.171Z,49.89
2023-09-06T17:36:49.699Z,45.46
2023-09-06T17:39:16.431Z,44.22
2023-09-06T17:41:43.149Z,44.34
2023-09-06T17:44:09.743Z,45.24
2023-09-06T17:46:36.545Z,46.22
2023-09-06T17:49:07.409Z,46.62
2023-09-06T17:51:35.778Z,46.46
2023-09-06T17:54:03.792Z,46.50
2023-09-06T17:56:30.584Z,45.99
2023-09-06T17:58:58.009Z,45.74
2023-09-06T18:01:25.201Z,46.06
2023-09-06T18:03:59.405Z,46.11
2023-09-06T18:06:27.585Z,46.05
2023-09-06T18:08:59.412Z,45.50
2023-09-06T18:11:26.404Z,45.91
2023-09-06T18:13:53.313Z,51.73
2023-09-06T18:16:20.285Z,45.91
2023-09-06T18:18:47.351Z,45.85
2023-09-06T18:21:15.518Z,46.25
2023-09-06T18:24:15.317Z,46.63
2023-09-06T18:26:48.542Z,46.66
2023-09-06T18:30:09.217Z,50.26
2023-09-06T18:32:35.969Z,45.14
2023-09-06T18:35:09.480Z,45.23
2023-09-06T18:37:36.937Z,45.62
2023-09-06T18:40:13.803Z,46.01
2023-09-06T18:42:41.056Z,46.13
2023-09-06T18:45:11.734Z,45.82
2023-09-06T18:47:43.017Z,46.02
2023-09-06T18:50:10.550Z,45.96
2023-09-06T18:52:37.347Z,46.10
2023-09-06T18:55:05.112Z,45.66
2023-09-06T18:57:35.012Z,46.00
2023-09-06T19:00:01.511Z,53.60
2023-09-06T19:02:28.139Z,46.21
2023-09-06T19:04:54.876Z,44.98
2023-09-06T19:07:21.747Z,44.75
2023-09-06T19:09:48.798Z,44.67
2023-09-06T19:12:16.982Z,44.98
2023-09-06T19:14:43.650Z,46.06
2023-09-06T19:17:10.380Z,46.81
2023-09-06T19:19:39.719Z,47.14
2023-09-06T19:22:07.845Z,47.30
2023-09-06T19:24:34.857Z,47.47
2023-09-06T19:27:02.114Z,46.81
2023-09-06T19:29:28.796Z,46.53
2023-09-06T19:31:55.461Z,45.98
2023-09-06T19:34:22.063Z,46.15
2023-09-06T19:36:48.647Z,46.08
2023-09-06T19:39:17.461Z,45.91
2023-09-06T19:41:44.027Z,45.75
2023-09-06T19:44:10.719Z,45.53
2023-09-06T19:46:37.421Z,45.69
2023-09-06T19:49:06.619Z,45.69
2023-09-06T19:51:41.256Z,45.54
2023-09-06T19:54:17.872Z,46.01
2023-09-06T19:56:44.573Z,45.71
2023-09-06T19:59:19.738Z,45.91
2023-09-06T20:01:50.963Z,44.97
2023-09-06T20:04:21.345Z,46.52
2023-09-06T20:06:48.166Z,47.09
2023-09-06T20:09:17.923Z,47.47
2023-09-06T20:11:44.675Z,47.22
2023-09-06T20:14:12.836Z,46.73
2023-09-06T20:16:42.654Z,46.25
2023-09-06T20:19:09.430Z,46.28
2023-09-06T20:21:44.960Z,46.52
2023-09-06T20:24:11.671Z,45.43
2023-09-06T20:26:38.501Z,46.15
2023-09-06T20:29:17.252Z,46.41
2023-09-06T20:31:44.157Z,46.69
2023-09-06T20:34:10.968Z,46.72
2023-09-06T20:36:40.697Z,47.75
2023-09-06T20:39:11.706Z,48.03
2023-09-06T20:41:51.354Z,47.77
2023-09-06T20:44:22.315Z,46.88
2023-09-06T20:46:56.401Z,45.79
2023-09-06T20:49:23.126Z,45.86
2023-09-06T20:51:49.984Z,45.23
2023-09-06T20:54:16.584Z,46.68
2023-09-06T20:56:43.262Z,46.95
2023-09-06T20:59:09.833Z,47.42
2023-09-06T21:01:36.501Z,46.15
2023-09-06T21:04:03.309Z,46.06
2023-09-06T21:06:30.207Z,45.98
2023-09-06T21:08:57.967Z,45.83
2023-09-06T21:11:24.672Z,46.23
2023-09-06T21:13:52.658Z,47.14
2023-09-06T21:16:19.390Z,47.14
2023-09-06T21:18:46.092Z,47.19
2023-09-06T21:21:12.749Z,46.98
2023-09-06T21:23:39.369Z,46.82
2023-09-06T21:26:06.887Z,47.61
2023-09-06T21:28:33.618Z,47.24
2023-09-06T21:31:02.718Z,46.65
2023-09-06T21:33:29.369Z,46.47
2023-09-06T21:35:56.014Z,47.23
2023-09-06T21:38:22.566Z,46.07
2023-09-06T21:40:49.107Z,46.07
2023-09-06T21:43:18.906Z,46.25
2023-09-06T21:45:46.000Z,46.81
2023-09-06T21:48:12.930Z,47.12
2023-09-06T21:50:40.188Z,47.02
2023-09-06T21:53:06.944Z,47.26
2023-09-06T21:55:33.514Z,46.64
2023-09-06T21:58:08.655Z,46.76
2023-09-06T22:00:37.462Z,46.83
2023-09-06T22:03:04.501Z,46.40
2023-09-06T22:05:31.230Z,46.66
2023-09-06T22:07:57.889Z,46.30
2023-09-06T22:10:24.695Z,45.96
2023-09-06T22:12:51.417Z,45.65
2023-09-06T22:15:18.116Z,45.35
2023-09-06T22:17:44.856Z,45.78
2023-09-06T22:20:11.526Z,46.85
2023-09-06T22:22:38.265Z,46.93
2023-09-06T22:25:08.045Z,47.24
2023-09-06T22:28:10.238Z,47.14
2023-09-06T22:31:25.318Z,46.91
2023-09-06T22:33:51.956Z,46.03
2023-09-06T22:36:18.523Z,46.38
2023-09-06T22:38:45.737Z,45.64
2023-09-06T22:41:12.262Z,45.89
2023-09-06T22:43:38.907Z,46.36
2023-09-06T22:46:05.625Z,46.23
2023-09-06T22:48:48.034Z,46.54
2023-09-06T22:51:19.176Z,46.70
2023-09-06T22:53:45.830Z,47.28
2023-09-06T22:56:12.398Z,46.61
2023-09-06T22:58:39.031Z,46.85
2023-09-06T23:01:06.717Z,47.62
2023-09-06T23:03:35.654Z,48.35
2023-09-06T23:06:03.378Z,47.30
2023-09-06T23:08:30.271Z,42.82
2023-09-06T23:11:01.181Z,43.25
2023-09-06T23:13:27.881Z,40.68
2023-09-06T23:15:54.546Z,39.62
2023-09-06T23:18:23.684Z,38.81
2023-09-06T23:20:52.341Z,38.95
2023-09-06T23:23:22.322Z,38.57
2023-09-06T23:25:52.321Z,38.19
2023-09-06T23:28:22.852Z,41.39
2023-09-06T23:30:55.235Z,41.76
2023-09-06T23:33:41.002Z,40.06
2023-09-06T23:36:10.472Z,38.94
2023-09-06T23:38:37.147Z,38.64
2023-09-06T23:41:06.716Z,38.63
2023-09-06T23:43:34.222Z,41.74
2023-09-06T23:46:04.808Z,41.48
2023-09-06T23:48:32.010Z,40.32
2023-09-06T23:50:59.044Z,39.18
2023-09-06T23:53:27.147Z,38.56
2023-09-06T23:55:54.102Z,38.37
2023-09-06T23:58:20.812Z,41.39
